createdAt,value
2022-09-12T00:00:52.102Z,44.88
2022-09-12T00:03:18.725Z,47.47
2022-09-12T00:05:46.879Z,43.38
2022-09-12T00:08:13.844Z,41.60
2022-09-12T00:10:41.871Z,43.80
2022-09-12T00:13:08.773Z,45.53
2022-09-12T00:15:43.051Z,47.70
2022-09-12T00:18:13.333Z,40.63
2022-09-12T00:20:46.990Z,42.10
2022-09-12T00:23:14.685Z,48.25
2022-09-12T00:25:43.482Z,43.22
2022-09-12T00:28:10.843Z,41.33
2022-09-12T00:30:44.240Z,46.42
2022-09-12T00:33:11.547Z,52.72
2022-09-12T00:35:45.774Z,48.20
2022-09-12T00:38:13.488Z,56.60
2022-09-12T00:40:41.550Z,46.40
2022-09-12T00:43:14.493Z,44.03
2022-09-12T00:45:42.542Z,44.70
2022-09-12T00:48:19.487Z,42.65
2022-09-12T00:50:45.991Z,47.65
2022-09-12T00:53:12.622Z,46.45
2022-09-12T00:55:41.815Z,55.35
2022-09-12T00:58:15.921Z,50.10
2022-09-12T01:00:42.686Z,49.78
2022-09-12T01:03:14.581Z,45.08
2022-09-12T01:05:44.413Z,42.17
2022-09-12T01:08:11.370Z,52.75
2022-09-12T01:10:38.844Z,57.17
2022-09-12T01:13:07.143Z,46.30
2022-09-12T01:15:34.915Z,56.10
2022-09-12T01:18:17.196Z,51.00
2022-09-12T01:20:55.541Z,53.15
2022-09-12T01:23:55.789Z,54.83
2022-09-12T01:26:51.000Z,44.03
2022-09-12T01:29:56.374Z,43.88
2022-09-12T01:32:39.133Z,45.22
2022-09-12T01:35:41.255Z,47.05
2022-09-12T01:38:30.001Z,63.38
2022-09-12T01:41:07.473Z,53.53
2022-09-12T01:43:42.633Z,50.58
2022-09-12T01:46:15.256Z,59.95
2022-09-12T01:48:48.482Z,57.47
2022-09-12T01:51:26.236Z,62.58
2022-09-12T01:54:03.878Z,53.65
2022-09-12T01:56:33.877Z,60.60
2022-09-12T01:59:08.758Z,64.22
2022-09-12T02:01:45.480Z,56.60
2022-09-12T02:04:19.008Z,55.65
2022-09-12T02:06:59.826Z,56.40
2022-09-12T02:09:50.039Z,58.78
2022-09-12T02:12:18.995Z,55.20
2022-09-12T02:14:49.936Z,62.67
2022-09-12T02:17:20.929Z,48.10
2022-09-12T02:19:52.240Z,57.47
2022-09-12T02:22:21.165Z,61.13
2022-09-12T02:24:50.750Z,60.95
2022-09-12T02:27:23.240Z,56.85
2022-09-12T02:29:49.778Z,60.15
2022-09-12T02:36:34.380Z,59.88
2022-09-12T02:39:01.307Z,65.32
2022-09-12T02:41:28.167Z,59.50
2022-09-12T02:43:54.756Z,56.60
2022-09-12T02:46:39.263Z,62.53
2022-09-12T02:49:05.891Z,57.00
2022-09-12T02:51:32.873Z,49.50
2022-09-12T02:53:59.422Z,62.08
2022-09-12T02:56:29.171Z,62.70
2022-09-12T02:59:00.151Z,63.28
2022-09-12T03:01:44.972Z,65.57
2022-09-12T03:04:37.810Z,62.90
2022-09-12T03:07:04.198Z,62.58
2022-09-12T03:09:40.022Z,74.93
2022-09-12T03:12:19.324Z,75.07
2022-09-12T03:15:01.573Z,72.78
2022-09-12T03:17:42.825Z,72.32
2022-09-12T03:20:23.007Z,79.95
2022-09-12T03:22:55.702Z,77.07
2022-09-12T03:25:30.678Z,78.85
2022-09-12T03:28:09.092Z,79.22
2022-09-12T03:30:44.785Z,76.80
2022-09-12T03:33:13.445Z,76.53
2022-09-12T03:35:40.083Z,81.68
2022-09-12T03:38:08.002Z,73.00
2022-09-12T03:40:35.846Z,76.55
2022-09-12T03:43:02.976Z,78.15
2022-09-12T03:45:29.614Z,79.43
2022-09-12T03:47:56.571Z,65.72
2022-09-12T03:50:23.134Z,80.25
2022-09-12T03:52:49.686Z,82.45
2022-09-12T03:55:16.362Z,75.60
2022-09-12T03:57:43.208Z,82.22
2022-09-12T04:00:10.349Z,72.93
2022-09-12T04:02:39.661Z,86.82
2022-09-12T04:05:06.759Z,89.43
2022-09-12T04:07:33.220Z,106.72
2022-09-12T04:09:59.669Z,101.75
2022-09-12T04:12:26.184Z,105.18
2022-09-12T04:14:52.679Z,108.70
2022-09-12T04:17:19.212Z,102.68
2022-09-12T04:19:45.645Z,104.47
2022-09-12T04:22:12.119Z,104.30
2022-09-12T04:24:38.868Z,100.88
2022-09-12T04:27:07.796Z,114.38
2022-09-12T04:29:35.472Z,111.13
2022-09-12T04:32:03.426Z,106.55
2022-09-12T04:34:32.796Z,109.25
2022-09-12T04:36:59.250Z,98.57
2022-09-12T04:39:25.791Z,100.93
2022-09-12T04:41:52.308Z,97.15
2022-09-12T04:44:18.768Z,103.70
2022-09-12T04:46:46.836Z,106.50
2022-09-12T04:49:16.152Z,101.55
2022-09-12T04:51:43.256Z,96.90
2022-09-12T04:54:15.416Z,95.07
2022-09-12T04:56:43.976Z,96.78
2022-09-12T04:59:12.599Z,87.70
2022-09-12T05:01:39.220Z,89.97
2022-09-12T05:04:05.847Z,87.68
2022-09-12T05:06:35.102Z,88.55
2022-09-12T05:09:03.171Z,96.18
2022-09-12T05:12:02.064Z,81.70
2022-09-12T05:14:19.410Z,83.60
2022-09-12T05:16:49.454Z,85.57
2022-09-12T05:19:16.661Z,88.32
2022-09-12T05:21:43.185Z,71.18
2022-09-12T05:24:10.645Z,82.47
2022-09-12T05:26:37.130Z,81.13
2022-09-12T05:29:04.215Z,76.03
2022-09-12T05:31:30.704Z,69.00
2022-09-12T05:33:57.573Z,78.65
2022-09-12T05:36:26.603Z,71.55
2022-09-12T05:38:53.309Z,72.20
2022-09-12T05:41:24.866Z,66.38
2022-09-12T05:43:56.800Z,63.78
2022-09-12T05:46:25.673Z,64.43
2022-09-12T05:48:56.305Z,64.85
2022-09-12T05:51:28.308Z,57.47
2022-09-12T05:53:57.573Z,56.28
2022-09-12T05:56:27.401Z,65.93
2022-09-12T05:59:18.698Z,56.90
2022-09-12T06:01:45.932Z,57.58
2022-09-12T06:04:13.255Z,50.38
2022-09-12T06:06:42.697Z,57.72
2022-09-12T06:09:09.978Z,53.88
2022-09-12T06:11:37.587Z,50.90
2022-09-12T06:14:04.486Z,45.88
2022-09-12T06:16:33.380Z,47.45
2022-09-12T06:19:02.277Z,43.90
2022-09-12T06:21:31.139Z,50.00
2022-09-12T06:23:58.855Z,52.03
2022-09-12T06:26:26.035Z,51.95
2022-09-12T06:28:54.233Z,54.75
2022-09-12T06:31:23.563Z,56.72
2022-09-12T06:33:51.784Z,55.85
2022-09-12T06:36:22.377Z,70.47
2022-09-12T06:38:54.029Z,71.13
2022-09-12T06:41:20.621Z,71.85
2022-09-12T06:43:47.113Z,75.53
2022-09-12T06:46:13.667Z,73.05
2022-09-12T06:48:42.994Z,72.53
2022-09-12T06:51:11.438Z,63.47
2022-09-12T06:53:38.192Z,66.68
2022-09-12T06:56:10.350Z,61.08
2022-09-12T06:58:36.890Z,58.58
2022-09-12T07:01:18.599Z,53.90
2022-09-12T07:03:56.305Z,48.15
2022-09-12T07:06:24.780Z,41.22
2022-09-12T07:08:51.393Z,40.05
2022-09-12T07:11:20.042Z,44.40
2022-09-12T07:13:49.501Z,41.42
2022-09-12T07:16:19.604Z,36.50
2022-09-12T07:18:54.131Z,33.92
2022-09-12T07:21:20.734Z,36.88
2022-09-12T07:23:47.938Z,32.85
2022-09-12T07:26:15.595Z,41.17
2022-09-12T07:28:42.598Z,35.53
2022-09-12T07:31:19.109Z,42.90
2022-09-12T07:33:45.835Z,38.95
2022-09-12T07:36:14.771Z,40.40
2022-09-12T07:38:41.909Z,40.60
2022-09-12T07:41:15.390Z,45.33
2022-09-12T07:43:41.972Z,40.70
2022-09-12T07:46:09.317Z,47.70
2022-09-12T07:48:36.356Z,40.17
2022-09-12T07:51:08.345Z,41.28
2022-09-12T07:53:37.423Z,41.53
2022-09-12T07:56:05.459Z,44.03
2022-09-12T07:58:34.024Z,46.83
2022-09-12T08:01:08.719Z,50.33
2022-09-12T08:03:36.202Z,53.45
2022-09-12T08:06:07.938Z,50.80
2022-09-12T08:08:35.160Z,49.88
2022-09-12T08:11:05.868Z,48.78
2022-09-12T08:13:34.220Z,50.70
2022-09-12T08:16:02.539Z,51.03
2022-09-12T08:18:30.155Z,41.45
2022-09-12T08:20:58.561Z,44.58
2022-09-12T08:23:25.240Z,43.28
2022-09-12T08:25:52.295Z,40.22
2022-09-12T08:28:18.754Z,40.90
2022-09-12T08:30:45.282Z,43.90
2022-09-12T08:33:11.801Z,39.92
2022-09-12T08:35:38.359Z,51.20
2022-09-12T08:38:04.918Z,35.25
2022-09-12T08:40:33.042Z,35.50
2022-09-12T08:43:25.030Z,30.55
2022-09-12T08:46:02.637Z,29.35
2022-09-12T08:48:29.466Z,27.92
2022-09-12T08:50:57.429Z,31.90
2022-09-12T08:53:24.668Z,25.17
2022-09-12T08:55:58.643Z,27.05
2022-09-12T08:58:28.062Z,25.80
2022-09-12T09:00:58.109Z,26.23
2022-09-12T09:03:45.176Z,26.17
2022-09-12T09:06:42.703Z,22.75
2022-09-12T09:09:42.953Z,22.75
2022-09-12T09:12:49.916Z,23.55
2022-09-12T09:15:24.614Z,23.60
2022-09-12T09:17:57.972Z,23.02
2022-09-12T09:20:30.034Z,23.85
2022-09-12T09:23:01.791Z,29.08
2022-09-12T09:25:37.218Z,26.50
2022-09-12T09:28:19.400Z,27.05
2022-09-12T09:30:47.226Z,23.67
2022-09-12T09:33:21.851Z,21.70
2022-09-12T09:35:55.745Z,15.93
2022-09-12T09:38:25.348Z,16.80
2022-09-12T09:41:14.006Z,18.13
2022-09-12T09:43:40.661Z,16.13
2022-09-12T09:46:07.360Z,13.23
2022-09-12T09:48:36.298Z,13.32
2022-09-12T09:51:05.064Z,16.02
2022-09-12T09:54:22.705Z,11.98
2022-09-12T09:56:49.525Z,10.38
2022-09-12T09:59:30.259Z,10.13
2022-09-12T10:02:14.731Z,11.40
2022-09-12T10:04:52.410Z,9.48
2022-09-12T10:07:20.030Z,9.60
2022-09-12T10:10:07.116Z,11.90
2022-09-12T10:12:33.599Z,9.23
2022-09-12T10:15:02.485Z,7.47
2022-09-12T10:17:39.987Z,9.50
2022-09-12T10:20:44.946Z,8.70
2022-09-12T10:23:43.842Z,6.57
2022-09-12T10:26:13.017Z,9.90
2022-09-12T10:28:47.917Z,8.88
2022-09-12T10:31:16.774Z,8.57
2022-09-12T10:33:47.463Z,7.18
2022-09-12T10:36:14.925Z,9.05
2022-09-12T10:38:49.632Z,6.30
2022-09-12T10:41:16.119Z,8.13
2022-09-12T10:43:43.140Z,8.52
2022-09-12T10:46:15.973Z,8.05
2022-09-12T10:48:43.134Z,6.72
2022-09-12T10:51:24.928Z,3.35
2022-09-12T10:53:53.696Z,5.40
2022-09-12T10:56:27.895Z,7.10
2022-09-12T10:59:11.674Z,5.18
2022-09-12T11:01:45.154Z,6.05
2022-09-12T11:04:42.049Z,5.50
2022-09-12T11:07:18.312Z,8.00
2022-09-12T11:09:54.614Z,5.57
2022-09-12T11:12:39.766Z,4.78
2022-09-12T11:15:40.675Z,5.40
2022-09-12T11:18:25.260Z,4.60
2022-09-12T11:21:15.883Z,5.65
2022-09-12T11:24:20.529Z,3.90
2022-09-12T11:26:55.690Z,5.20
2022-09-12T11:29:35.204Z,8.27
2022-09-12T11:32:10.095Z,4.00
2022-09-12T11:35:17.284Z,3.80
2022-09-12T11:37:54.336Z,4.78
2022-09-12T11:40:27.685Z,7.30
2022-09-12T11:42:59.617Z,5.03
2022-09-12T11:45:41.422Z,4.35
2022-09-12T11:48:16.419Z,5.43
2022-09-12T11:50:42.887Z,3.72
2022-09-12T11:53:19.070Z,4.65
2022-09-12T11:55:59.893Z,3.05
2022-09-12T11:58:29.208Z,2.45
2022-09-12T12:01:01.027Z,3.25
2022-09-12T12:03:40.301Z,2.58
2022-09-12T12:06:26.971Z,2.42
2022-09-12T12:08:53.774Z,3.90
2022-09-12T12:11:34.299Z,5.28
2022-09-12T12:14:06.673Z,4.55
2022-09-12T12:16:39.901Z,2.85
2022-09-12T12:19:30.276Z,6.15
2022-09-12T12:22:06.164Z,3.25
2022-09-12T12:24:34.114Z,3.58
2022-09-12T12:27:41.836Z,3.92
2022-09-12T12:30:31.162Z,3.90
2022-09-12T12:33:01.939Z,3.80
2022-09-12T12:35:40.625Z,3.45
2022-09-12T12:38:40.350Z,5.35
2022-09-12T12:41:18.794Z,3.20
2022-09-12T12:43:49.694Z,5.80
2022-09-12T12:46:17.837Z,6.00
2022-09-12T12:48:53.250Z,5.15
2022-09-12T12:51:31.934Z,3.42
2022-09-12T12:54:00.583Z,6.75
2022-09-12T12:56:34.879Z,3.50
2022-09-12T12:59:05.978Z,3.72
2022-09-12T13:04:03.653Z,4.43
2022-09-12T13:09:08.101Z,4.97
2022-09-12T13:11:35.780Z,4.90
2022-09-12T13:14:04.702Z,5.45
2022-09-12T13:16:39.176Z,5.35
2022-09-12T13:19:18.216Z,4.53
2022-09-12T13:22:06.799Z,9.30
2022-09-12T13:24:34.242Z,5.53
2022-09-12T13:27:00.874Z,6.82
2022-09-12T13:29:27.926Z,4.28
2022-09-12T13:31:59.900Z,3.95
2022-09-12T13:34:54.786Z,4.70
2022-09-12T13:37:29.973Z,3.47
2022-09-12T13:40:14.929Z,3.60
2022-09-12T13:43:02.837Z,4.47
2022-09-12T13:45:35.436Z,4.68
2022-09-12T13:48:03.200Z,4.40
2022-09-12T13:50:39.057Z,9.32
2022-09-12T13:53:07.504Z,4.90
2022-09-12T13:55:40.008Z,5.93
2022-09-12T13:58:16.439Z,5.63
2022-09-12T14:00:43.500Z,7.00
2022-09-12T14:03:50.367Z,5.38
2022-09-12T14:06:18.835Z,5.18
2022-09-12T14:08:48.713Z,7.10
2022-09-12T14:11:35.562Z,3.40
2022-09-12T14:14:06.071Z,3.50
2022-09-12T14:16:38.779Z,5.57
2022-09-12T14:19:05.432Z,4.80
2022-09-12T14:21:36.313Z,3.45
2022-09-12T14:24:08.358Z,5.45
2022-09-12T14:26:36.609Z,5.60
2022-09-12T14:29:06.013Z,3.83
2022-09-12T14:31:35.768Z,3.65
2022-09-12T14:34:14.622Z,3.88
2022-09-12T14:36:52.220Z,5.90
2022-09-12T14:39:24.588Z,3.83
2022-09-12T14:41:52.254Z,3.75
2022-09-12T14:44:25.857Z,4.53
2022-09-12T14:46:52.458Z,3.63
2022-09-12T14:49:31.532Z,3.60
2022-09-12T14:52:00.775Z,3.33
2022-09-12T14:54:30.244Z,6.25
2022-09-12T14:57:05.290Z,4.15
2022-09-12T14:59:34.966Z,5.53
2022-09-12T15:02:13.678Z,6.55
2022-09-12T15:04:43.970Z,4.22
2022-09-12T15:07:22.638Z,3.63
2022-09-12T15:09:49.687Z,6.60
2022-09-12T15:12:16.391Z,5.05
2022-09-12T15:14:42.918Z,7.63
2022-09-12T15:17:09.507Z,4.05
2022-09-12T15:19:36.002Z,3.55
2022-09-12T15:22:02.645Z,4.18
2022-09-12T15:24:29.141Z,9.25
2022-09-12T15:26:55.948Z,4.57
2022-09-12T15:29:22.432Z,5.97
2022-09-12T15:31:50.940Z,3.03
2022-09-12T15:34:17.498Z,6.80
2022-09-12T15:36:43.976Z,4.60
2022-09-12T15:39:10.552Z,3.72
2022-09-12T15:41:38.366Z,5.82
2022-09-12T15:44:06.356Z,5.25
2022-09-12T15:46:32.885Z,7.15
2022-09-12T15:48:59.445Z,6.18
2022-09-12T15:51:25.994Z,4.75
2022-09-12T15:53:52.706Z,5.13
2022-09-12T15:56:21.076Z,7.22
2022-09-12T15:58:58.126Z,5.43
2022-09-12T16:01:25.327Z,5.43
2022-09-12T16:03:51.974Z,7.68
2022-09-12T16:06:18.459Z,8.35
2022-09-12T16:08:45.044Z,4.75
2022-09-12T16:11:20.188Z,5.57
2022-09-12T16:13:46.658Z,4.70
2022-09-12T16:16:13.289Z,11.55
2022-09-12T16:18:40.458Z,7.65
2022-09-12T16:21:11.327Z,9.82
2022-09-12T16:23:45.669Z,11.15
2022-09-12T16:26:12.356Z,14.90
2022-09-12T16:28:39.309Z,7.15
2022-09-12T16:31:07.253Z,5.60
2022-09-12T16:33:34.065Z,5.15
2022-09-12T16:36:04.667Z,9.07
2022-09-12T16:38:31.700Z,4.20
2022-09-12T16:41:06.347Z,4.97
2022-09-12T16:43:34.262Z,8.10
2022-09-12T16:46:06.181Z,8.88
2022-09-12T16:48:33.617Z,5.30
2022-09-12T16:51:01.990Z,8.80
2022-09-12T16:53:32.980Z,3.97
2022-09-12T16:55:59.465Z,3.90
2022-09-12T16:58:26.020Z,3.72
2022-09-12T17:01:09.819Z,4.90
2022-09-12T17:03:36.414Z,4.28
2022-09-12T17:06:05.566Z,5.72
2022-09-12T17:08:36.838Z,5.25
2022-09-12T17:11:06.359Z,4.07
2022-09-12T17:13:53.349Z,3.90
2022-09-12T17:16:20.106Z,4.68
2022-09-12T17:18:47.139Z,3.95
2022-09-12T17:21:14.033Z,5.40
2022-09-12T17:23:41.099Z,8.82
2022-09-12T17:26:09.520Z,5.00
2022-09-12T17:28:37.207Z,8.15
2022-09-12T17:31:06.484Z,3.92
2022-09-12T17:33:33.425Z,5.10
2022-09-12T17:36:00.866Z,3.97
2022-09-12T17:38:27.936Z,5.60
2022-09-12T17:40:59.712Z,5.90
2022-09-12T17:43:26.558Z,7.47
2022-09-12T17:45:57.251Z,4.38
2022-09-12T17:48:24.219Z,5.00
2022-09-12T17:50:50.750Z,3.90
2022-09-12T17:53:17.962Z,4.05
2022-09-12T17:55:44.472Z,5.70
2022-09-12T17:58:11.021Z,6.22
2022-09-12T18:00:56.180Z,5.50
2022-09-12T18:03:23.316Z,8.35
2022-09-12T18:05:53.506Z,5.28
2022-09-12T18:08:21.606Z,5.40
2022-09-12T18:10:48.249Z,7.68
2022-09-12T18:13:16.084Z,5.97
2022-09-12T18:15:43.026Z,5.45
2022-09-12T18:18:09.963Z,7.28
2022-09-12T18:20:36.955Z,12.48
2022-09-12T18:23:04.491Z,7.22
2022-09-12T18:25:31.266Z,7.18
2022-09-12T18:27:57.961Z,8.35
2022-09-12T18:30:24.670Z,11.15
2022-09-12T18:32:51.505Z,9.18
2022-09-12T18:35:18.589Z,6.13
2022-09-12T18:37:45.381Z,6.50
2022-09-12T18:40:12.273Z,7.97
2022-09-12T18:42:39.943Z,8.10
2022-09-12T18:45:07.405Z,7.97
2022-09-12T18:47:34.811Z,9.20
2022-09-12T18:50:01.383Z,9.07
2022-09-12T18:52:28.021Z,10.93
2022-09-12T18:54:54.593Z,10.05
2022-09-12T18:57:21.199Z,13.57
2022-09-12T18:59:47.767Z,12.25
2022-09-12T19:02:16.135Z,9.32
2022-09-12T19:04:42.622Z,11.73
2022-09-12T19:07:10.529Z,12.68
2022-09-12T19:09:37.113Z,14.52
2022-09-12T19:12:03.687Z,14.98
2022-09-12T19:14:30.376Z,14.32
2022-09-12T19:16:56.936Z,10.90
2022-09-12T19:19:23.477Z,12.95
2022-09-12T19:21:49.944Z,10.52
2022-09-12T19:24:17.146Z,14.15
2022-09-12T19:26:44.113Z,11.00
2022-09-12T19:29:11.630Z,9.27
2022-09-12T19:31:38.197Z,11.82
2022-09-12T19:34:07.114Z,10.93
2022-09-12T19:36:44.864Z,11.13
2022-09-12T19:39:12.897Z,10.90
2022-09-12T19:41:39.437Z,18.38
2022-09-12T19:44:05.933Z,10.68
2022-09-12T19:46:32.798Z,11.73
2022-09-12T19:48:59.433Z,10.25
2022-09-12T19:51:26.309Z,13.60
2022-09-12T19:53:53.311Z,15.88
2022-09-12T19:56:20.149Z,11.38
2022-09-12T19:58:49.954Z,14.18
2022-09-12T20:01:21.241Z,11.25
2022-09-12T20:03:48.934Z,10.23
2022-09-12T20:06:17.003Z,14.13
2022-09-12T20:08:44.030Z,11.25
2022-09-12T20:11:12.471Z,8.73
2022-09-12T20:13:39.650Z,12.63
2022-09-12T20:16:21.728Z,11.85
2022-09-12T20:18:49.345Z,11.63
2022-09-12T20:21:24.925Z,13.82
2022-09-12T20:23:51.644Z,14.93
2022-09-12T20:26:20.040Z,11.02
2022-09-12T20:28:46.552Z,11.43
2022-09-12T20:31:15.759Z,10.57
2022-09-12T20:33:42.612Z,11.80
2022-09-12T20:36:15.002Z,9.88
2022-09-12T20:38:42.677Z,9.32
2022-09-12T20:41:10.966Z,10.25
2022-09-12T20:43:38.551Z,11.57
2022-09-12T20:46:07.090Z,10.00
2022-09-12T20:48:33.693Z,11.52
2022-09-12T20:51:00.196Z,9.70
2022-09-12T20:53:28.837Z,11.45
2022-09-12T20:55:58.233Z,11.38
2022-09-12T20:58:24.746Z,9.77
2022-09-12T21:00:51.358Z,9.65
2022-09-12T21:03:18.206Z,10.32
2022-09-12T21:05:45.839Z,7.57
2022-09-12T21:08:13.003Z,12.60
2022-09-12T21:10:45.714Z,10.63
2022-09-12T21:13:13.130Z,12.25
2022-09-12T21:15:40.175Z,10.68
2022-09-12T21:18:06.995Z,15.85
2022-09-12T21:20:33.815Z,12.30
2022-09-12T21:23:00.623Z,11.50
2022-09-12T21:25:28.793Z,11.75
2022-09-12T21:27:55.326Z,12.15
2022-09-12T21:30:22.179Z,11.40
2022-09-12T21:32:48.873Z,11.27
2022-09-12T21:35:15.833Z,8.75
2022-09-12T21:37:42.597Z,10.50
2022-09-12T21:40:09.820Z,12.95
2022-09-12T21:42:36.641Z,14.27
2022-09-12T21:45:03.610Z,11.07
2022-09-12T21:47:30.260Z,7.25
2022-09-12T21:49:57.517Z,6.80
2022-09-12T21:52:23.982Z,7.15
2022-09-12T21:54:50.517Z,5.20
2022-09-12T21:57:17.040Z,7.57
2022-09-12T21:59:43.509Z,9.25
2022-09-12T22:02:10.730Z,9.40
2022-09-12T22:04:37.321Z,6.00
2022-09-12T22:07:05.249Z,8.50
2022-09-12T22:09:32.744Z,5.30
2022-09-12T22:11:59.264Z,7.72
2022-09-12T22:14:25.794Z,4.30
2022-09-12T22:16:52.279Z,7.85
2022-09-12T22:19:19.513Z,9.68
2022-09-12T22:22:11.922Z,5.53
2022-09-12T22:24:38.500Z,6.28
2022-09-12T22:27:06.273Z,6.38
2022-09-12T22:29:33.403Z,6.82
2022-09-12T22:32:00.159Z,4.85
2022-09-12T22:34:27.652Z,6.30
2022-09-12T22:36:54.178Z,7.13
2022-09-12T22:39:20.675Z,8.05
2022-09-12T22:41:47.284Z,4.82
2022-09-12T22:44:14.187Z,11.93
2022-09-12T22:46:40.739Z,6.25
2022-09-12T22:49:07.460Z,5.45
2022-09-12T22:51:34.200Z,6.25
2022-09-12T22:54:00.707Z,7.45
2022-09-12T22:56:27.653Z,8.55
2022-09-12T22:58:54.317Z,6.65
2022-09-12T23:01:20.851Z,7.10
2022-09-12T23:03:47.570Z,5.85
2022-09-12T23:06:14.266Z,6.35
2022-09-12T23:08:40.760Z,7.90
2022-09-12T23:11:15.130Z,6.50
2022-09-12T23:13:43.702Z,5.78
2022-09-12T23:16:15.570Z,5.75
2022-09-12T23:18:42.143Z,6.32
2022-09-12T23:21:11.002Z,4.65
2022-09-12T23:23:37.906Z,5.15
2022-09-12T23:26:14.789Z,6.18
2022-09-12T23:28:42.600Z,7.22
2022-09-12T23:31:12.190Z,6.07
2022-09-12T23:33:38.690Z,7.80
2022-09-12T23:36:07.782Z,6.18
2022-09-12T23:38:35.309Z,4.60
2022-09-12T23:41:03.726Z,6.43
2022-09-12T23:43:30.820Z,5.63
2022-09-12T23:45:58.216Z,5.43
2022-09-12T23:48:25.027Z,7.03
2022-09-12T23:50:51.670Z,5.60
2022-09-12T23:53:18.728Z,8.07
2022-09-12T23:55:45.323Z,7.70
2022-09-12T23:58:12.345Z,9.48
